sensor_id;sensor_type;location;lat;lon;timestamp;P1;durP1;ratioP1;P2;durP2;ratioP2
61673;SDS011;47573;43.832;5.974;2023-04-06T00:03:10;319.98;;;203.48;;
61673;SDS011;47573;43.832;5.974;2023-04-06T00:09:52;309.50;;;196.82;;
61673;SDS011;47573;43.832;5.974;2023-04-06T00:16:33;303.17;;;192.25;;
61673;SDS011;47573;43.832;5.974;2023-04-06T00:23:13;294.58;;;185.52;;
61673;SDS011;47573;43.832;5.974;2023-04-06T00:29:56;295.75;;;180.20;;
61673;SDS011;47573;43.832;5.974;2023-04-06T00:36:36;286.97;;;177.63;;
61673;SDS011;47573;43.832;5.974;2023-04-06T00:43:17;281.35;;;173.48;;
61673;SDS011;47573;43.832;5.974;2023-04-06T00:49:58;277.48;;;168.60;;
61673;SDS011;47573;43.832;5.974;2023-04-06T00:56:39;270.30;;;163.38;;
61673;SDS011;47573;43.832;5.974;2023-04-06T01:03:22;259.20;;;155.20;;
61673;SDS011;47573;43.832;5.974;2023-04-06T01:10:04;251.15;;;151.05;;
61673;SDS011;47573;43.832;5.974;2023-04-06T01:16:45;248.93;;;150.05;;
61673;SDS011;47573;43.832;5.974;2023-04-06T01:30:10;236.77;;;144.55;;
61673;SDS011;47573;43.832;5.974;2023-04-06T01:36:51;231.88;;;140.32;;
61673;SDS011;47573;43.832;5.974;2023-04-06T01:43:33;227.13;;;136.27;;
61673;SDS011;47573;43.832;5.974;2023-04-06T01:50:14;224.95;;;133.88;;
61673;SDS011;47573;43.832;5.974;2023-04-06T01:56:54;218.05;;;128.18;;
61673;SDS011;47573;43.832;5.974;2023-04-06T02:03:36;212.20;;;124.40;;
61673;SDS011;47573;43.832;5.974;2023-04-06T02:10:17;207.73;;;122.72;;
61673;SDS011;47573;43.832;5.974;2023-04-06T02:16:58;201.32;;;120.30;;
61673;SDS011;47573;43.832;5.974;2023-04-06T02:23:40;202.23;;;119.60;;
61673;SDS011;47573;43.832;5.974;2023-04-06T02:30:20;194.05;;;115.15;;
61673;SDS011;47573;43.832;5.974;2023-04-06T02:37:01;185.48;;;109.75;;
61673;SDS011;47573;43.832;5.974;2023-04-06T02:43:43;170.43;;;101.18;;
61673;SDS011;47573;43.832;5.974;2023-04-06T02:50:23;158.90;;;95.88;;
61673;SDS011;47573;43.832;5.974;2023-04-06T02:57:04;160.93;;;95.38;;
61673;SDS011;47573;43.832;5.974;2023-04-06T03:03:46;157.77;;;94.10;;
61673;SDS011;47573;43.832;5.974;2023-04-06T03:10:26;155.00;;;90.07;;
61673;SDS011;47573;43.832;5.974;2023-04-06T03:17:07;149.38;;;88.82;;
61673;SDS011;47573;43.832;5.974;2023-04-06T03:23:49;150.20;;;89.22;;
61673;SDS011;47573;43.832;5.974;2023-04-06T03:30:29;139.25;;;81.90;;
61673;SDS011;47573;43.832;5.974;2023-04-06T03:37:10;136.40;;;79.35;;
61673;SDS011;47573;43.832;5.974;2023-04-06T03:43:52;133.40;;;76.28;;
61673;SDS011;47573;43.832;5.974;2023-04-06T03:50:33;128.82;;;75.18;;
61673;SDS011;47573;43.832;5.974;2023-04-06T03:57:13;129.18;;;73.65;;
61673;SDS011;47573;43.832;5.974;2023-04-06T04:03:55;125.07;;;71.82;;
61673;SDS011;47573;43.832;5.974;2023-04-06T04:10:36;119.53;;;69.13;;
61673;SDS011;47573;43.832;5.974;2023-04-06T04:17:16;114.78;;;66.90;;
61673;SDS011;47573;43.832;5.974;2023-04-06T04:23:58;113.50;;;63.72;;
61673;SDS011;47573;43.832;5.974;2023-04-06T04:30:39;107.18;;;61.08;;
61673;SDS011;47573;43.832;5.974;2023-04-06T04:37:19;107.47;;;60.33;;
61673;SDS011;47573;43.832;5.974;2023-04-06T04:44:01;104.45;;;60.08;;
61673;SDS011;47573;43.832;5.974;2023-04-06T04:50:42;96.35;;;56.10;;
61673;SDS011;47573;43.832;5.974;2023-04-06T04:57:22;95.32;;;54.45;;
61673;SDS011;47573;43.832;5.974;2023-04-06T05:04:04;97.97;;;55.35;;
61673;SDS011;47573;43.832;5.974;2023-04-06T05:10:45;93.45;;;53.53;;
61673;SDS011;47573;43.832;5.974;2023-04-06T05:17:25;90.47;;;52.25;;
61673;SDS011;47573;43.832;5.974;2023-04-06T05:24:07;85.82;;;50.22;;
61673;SDS011;47573;43.832;5.974;2023-04-06T05:30:48;86.28;;;49.72;;
61673;SDS011;47573;43.832;5.974;2023-04-06T05:37:29;84.25;;;49.20;;
61673;SDS011;47573;43.832;5.974;2023-04-06T05:44:11;76.97;;;46.80;;
61673;SDS011;47573;43.832;5.974;2023-04-06T05:50:51;80.07;;;47.53;;
61673;SDS011;47573;43.832;5.974;2023-04-06T05:57:32;81.07;;;46.50;;
61673;SDS011;47573;43.832;5.974;2023-04-06T06:04:14;75.53;;;44.35;;
61673;SDS011;47573;43.832;5.974;2023-04-06T06:10:54;71.05;;;42.60;;
61673;SDS011;47573;43.832;5.974;2023-04-06T06:17:35;69.15;;;41.15;;
61673;SDS011;47573;43.832;5.974;2023-04-06T06:24:17;70.40;;;40.67;;
61673;SDS011;47573;43.832;5.974;2023-04-06T06:30:58;66.72;;;39.80;;
61673;SDS011;47573;43.832;5.974;2023-04-06T06:37:41;64.35;;;37.85;;
61673;SDS011;47573;43.832;5.974;2023-04-06T06:44:23;61.70;;;35.75;;
61673;SDS011;47573;43.832;5.974;2023-04-06T06:51:04;59.50;;;35.03;;
61673;SDS011;47573;43.832;5.974;2023-04-06T06:57:44;60.42;;;34.90;;
61673;SDS011;47573;43.832;5.974;2023-04-06T07:04:26;55.53;;;32.90;;
61673;SDS011;47573;43.832;5.974;2023-04-06T07:11:07;53.42;;;31.58;;
61673;SDS011;47573;43.832;5.974;2023-04-06T07:17:47;55.92;;;32.92;;
61673;SDS011;47573;43.832;5.974;2023-04-06T07:24:29;226.68;;;86.32;;
61673;SDS011;47573;43.832;5.974;2023-04-06T07:31:11;340.83;;;96.65;;
61673;SDS011;47573;43.832;5.974;2023-04-06T07:37:52;311.52;;;82.32;;
61673;SDS011;47573;43.832;5.974;2023-04-06T07:44:34;90.07;;;30.58;;
61673;SDS011;47573;43.832;5.974;2023-04-06T07:51:14;155.68;;;42.17;;
61673;SDS011;47573;43.832;5.974;2023-04-06T07:57:55;219.07;;;51.65;;
61673;SDS011;47573;43.832;5.974;2023-04-06T08:04:37;120.15;;;33.85;;
61673;SDS011;47573;43.832;5.974;2023-04-06T08:11:17;188.95;;;79.97;;
61673;SDS011;47573;43.832;5.974;2023-04-06T08:17:58;190.07;;;46.05;;
61673;SDS011;47573;43.832;5.974;2023-04-06T08:24:40;175.13;;;44.70;;
61673;SDS011;47573;43.832;5.974;2023-04-06T08:31:20;179.73;;;42.97;;
61673;SDS011;47573;43.832;5.974;2023-04-06T08:38:01;204.02;;;52.05;;
61673;SDS011;47573;43.832;5.974;2023-04-06T08:44:43;176.00;;;40.97;;
61673;SDS011;47573;43.832;5.974;2023-04-06T08:51:24;43.30;;;14.38;;
61673;SDS011;47573;43.832;5.974;2023-04-06T08:58:06;18.08;;;9.48;;
61673;SDS011;47573;43.832;5.974;2023-04-06T09:04:49;16.75;;;9.15;;
61673;SDS011;47573;43.832;5.974;2023-04-06T09:11:43;14.52;;;8.88;;
61673;SDS011;47573;43.832;5.974;2023-04-06T09:18:27;14.68;;;9.05;;
61673;SDS011;47573;43.832;5.974;2023-04-06T09:25:10;13.30;;;9.30;;
61673;SDS011;47573;43.832;5.974;2023-04-06T09:32:02;14.30;;;8.60;;
61673;SDS011;47573;43.832;5.974;2023-04-06T09:38:52;12.88;;;9.00;;
61673;SDS011;47573;43.832;5.974;2023-04-06T09:45:35;14.10;;;8.57;;
61673;SDS011;47573;43.832;5.974;2023-04-06T09:52:16;13.82;;;8.63;;
61673;SDS011;47573;43.832;5.974;2023-04-06T09:59:02;20.60;;;9.23;;
61673;SDS011;47573;43.832;5.974;2023-04-06T10:05:46;14.63;;;9.05;;
61673;SDS011;47573;43.832;5.974;2023-04-06T10:12:32;20.95;;;10.05;;
61673;SDS011;47573;43.832;5.974;2023-04-06T10:19:13;17.63;;;9.10;;
61673;SDS011;47573;43.832;5.974;2023-04-06T10:26:00;48.95;;;17.23;;
61673;SDS011;47573;43.832;5.974;2023-04-06T10:32:42;36.15;;;14.57;;
61673;SDS011;47573;43.832;5.974;2023-04-06T10:39:24;47.95;;;17.35;;
61673;SDS011;47573;43.832;5.974;2023-04-06T10:46:06;31.75;;;12.80;;
61673;SDS011;47573;43.832;5.974;2023-04-06T10:52:58;29.67;;;12.27;;
61673;SDS011;47573;43.832;5.974;2023-04-06T10:59:41;36.33;;;14.75;;
61673;SDS011;47573;43.832;5.974;2023-04-06T11:06:24;52.47;;;18.33;;
61673;SDS011;47573;43.832;5.974;2023-04-06T11:13:06;28.08;;;13.38;;
61673;SDS011;47573;43.832;5.974;2023-04-06T11:19:46;20.02;;;11.00;;
61673;SDS011;47573;43.832;5.974;2023-04-06T11:26:36;25.25;;;12.77;;
61673;SDS011;47573;43.832;5.974;2023-04-06T11:33:20;26.30;;;12.95;;
61673;SDS011;47573;43.832;5.974;2023-04-06T11:40:01;24.55;;;13.20;;
61673;SDS011;47573;43.832;5.974;2023-04-06T11:46:52;15.18;;;10.27;;
61673;SDS011;47573;43.832;5.974;2023-04-06T11:53:33;15.85;;;8.65;;
61673;SDS011;47573;43.832;5.974;2023-04-06T12:00:23;23.73;;;11.68;;
61673;SDS011;47573;43.832;5.974;2023-04-06T12:07:05;15.13;;;9.05;;
61673;SDS011;47573;43.832;5.974;2023-04-06T12:13:46;11.20;;;8.18;;
61673;SDS011;47573;43.832;5.974;2023-04-06T12:20:28;10.70;;;7.68;;
61673;SDS011;47573;43.832;5.974;2023-04-06T12:27:10;10.80;;;7.75;;
61673;SDS011;47573;43.832;5.974;2023-04-06T12:33:51;11.70;;;7.60;;
61673;SDS011;47573;43.832;5.974;2023-04-06T12:40:35;9.95;;;7.13;;
61673;SDS011;47573;43.832;5.974;2023-04-06T12:47:18;9.82;;;7.15;;
61673;SDS011;47573;43.832;5.974;2023-04-06T12:53:58;10.23;;;7.20;;
61673;SDS011;47573;43.832;5.974;2023-04-06T13:00:39;9.05;;;6.95;;
61673;SDS011;47573;43.832;5.974;2023-04-06T13:07:21;9.30;;;6.80;;
61673;SDS011;47573;43.832;5.974;2023-04-06T13:14:02;9.50;;;6.83;;
61673;SDS011;47573;43.832;5.974;2023-04-06T13:20:42;9.30;;;6.68;;
61673;SDS011;47573;43.832;5.974;2023-04-06T13:27:24;10.00;;;7.53;;
61673;SDS011;47573;43.832;5.974;2023-04-06T13:34:05;70.60;;;26.33;;
61673;SDS011;47573;43.832;5.974;2023-04-06T13:40:45;13.60;;;9.13;;
61673;SDS011;47573;43.832;5.974;2023-04-06T13:47:28;13.52;;;10.07;;
61673;SDS011;47573;43.832;5.974;2023-04-06T13:54:08;12.25;;;9.25;;
61673;SDS011;47573;43.832;5.974;2023-04-06T14:00:48;13.00;;;9.73;;
61673;SDS011;47573;43.832;5.974;2023-04-06T14:07:30;12.33;;;9.70;;
61673;SDS011;47573;43.832;5.974;2023-04-06T14:14:11;35.58;;;25.27;;
61673;SDS011;47573;43.832;5.974;2023-04-06T14:20:54;60.27;;;40.00;;
61673;SDS011;47573;43.832;5.974;2023-04-06T14:27:36;59.72;;;40.28;;
61673;SDS011;47573;43.832;5.974;2023-04-06T14:34:17;55.22;;;38.05;;
61673;SDS011;47573;43.832;5.974;2023-04-06T14:40:57;51.93;;;36.67;;
61673;SDS011;47573;43.832;5.974;2023-04-06T14:47:39;50.60;;;33.13;;
61673;SDS011;47573;43.832;5.974;2023-04-06T14:54:20;49.38;;;36.42;;
61673;SDS011;47573;43.832;5.974;2023-04-06T15:01:00;49.55;;;35.90;;
61673;SDS011;47573;43.832;5.974;2023-04-06T15:07:43;49.35;;;35.88;;
61673;SDS011;47573;43.832;5.974;2023-04-06T15:14:24;49.25;;;34.70;;
61673;SDS011;47573;43.832;5.974;2023-04-06T15:21:04;48.78;;;35.97;;
61673;SDS011;47573;43.832;5.974;2023-04-06T15:27:46;49.20;;;35.90;;
61673;SDS011;47573;43.832;5.974;2023-04-06T15:34:27;47.47;;;34.97;;
61673;SDS011;47573;43.832;5.974;2023-04-06T15:41:10;45.83;;;34.65;;
61673;SDS011;47573;43.832;5.974;2023-04-06T15:47:54;49.30;;;35.97;;
61673;SDS011;47573;43.832;5.974;2023-04-06T15:54:34;47.00;;;35.15;;
61673;SDS011;47573;43.832;5.974;2023-04-06T16:01:15;50.00;;;35.90;;
61673;SDS011;47573;43.832;5.974;2023-04-06T16:07:58;71.80;;;51.05;;
61673;SDS011;47573;43.832;5.974;2023-04-06T16:14:38;110.85;;;74.80;;
61673;SDS011;47573;43.832;5.974;2023-04-06T16:21:19;116.78;;;79.35;;
61673;SDS011;47573;43.832;5.974;2023-04-06T16:28:01;369.20;;;164.00;;
61673;SDS011;47573;43.832;5.974;2023-04-06T16:34:42;168.30;;;110.15;;
61673;SDS011;47573;43.832;5.974;2023-04-06T16:41:22;191.23;;;118.43;;
61673;SDS011;47573;43.832;5.974;2023-04-06T16:48:04;175.98;;;117.45;;
61673;SDS011;47573;43.832;5.974;2023-04-06T16:54:45;215.73;;;145.30;;
61673;SDS011;47573;43.832;5.974;2023-04-06T17:01:26;257.38;;;174.10;;
61673;SDS011;47573;43.832;5.974;2023-04-06T17:08:08;266.80;;;184.35;;
61673;SDS011;47573;43.832;5.974;2023-04-06T17:14:49;263.33;;;181.88;;
61673;SDS011;47573;43.832;5.974;2023-04-06T17:21:30;227.50;;;151.00;;
61673;SDS011;47573;43.832;5.974;2023-04-06T17:28:12;244.55;;;168.40;;
61673;SDS011;47573;43.832;5.974;2023-04-06T17:34:52;280.20;;;198.30;;
61673;SDS011;47573;43.832;5.974;2023-04-06T17:41:33;283.73;;;203.30;;
61673;SDS011;47573;43.832;5.974;2023-04-06T17:48:15;306.37;;;221.27;;
61673;SDS011;47573;43.832;5.974;2023-04-06T17:54:55;361.08;;;265.08;;
61673;SDS011;47573;43.832;5.974;2023-04-06T18:01:37;351.05;;;263.65;;
61673;SDS011;47573;43.832;5.974;2023-04-06T18:08:19;339.98;;;255.07;;
61673;SDS011;47573;43.832;5.974;2023-04-06T18:15:00;335.10;;;250.63;;
61673;SDS011;47573;43.832;5.974;2023-04-06T18:21:40;336.83;;;251.32;;
61673;SDS011;47573;43.832;5.974;2023-04-06T18:28:22;343.45;;;258.25;;
61673;SDS011;47573;43.832;5.974;2023-04-06T18:35:03;349.13;;;264.70;;
61673;SDS011;47573;43.832;5.974;2023-04-06T18:41:44;378.98;;;290.83;;
61673;SDS011;47573;43.832;5.974;2023-04-06T18:48:26;388.00;;;300.00;;
61673;SDS011;47573;43.832;5.974;2023-04-06T18:55:07;376.23;;;289.70;;
61673;SDS011;47573;43.832;5.974;2023-04-06T19:01:48;360.92;;;278.00;;
61673;SDS011;47573;43.832;5.974;2023-04-06T19:08:30;369.90;;;285.27;;
61673;SDS011;47573;43.832;5.974;2023-04-06T19:15:11;370.38;;;288.50;;
61673;SDS011;47573;43.832;5.974;2023-04-06T19:21:51;390.60;;;302.70;;
61673;SDS011;47573;43.832;5.974;2023-04-06T19:28:33;400.88;;;309.77;;
61673;SDS011;47573;43.832;5.974;2023-04-06T19:35:14;447.50;;;331.30;;
61673;SDS011;47573;43.832;5.974;2023-04-06T19:41:55;457.65;;;342.95;;
61673;SDS011;47573;43.832;5.974;2023-04-06T19:48:36;504.27;;;362.00;;
61673;SDS011;47573;43.832;5.974;2023-04-06T19:55:17;464.67;;;350.50;;
61673;SDS011;47573;43.832;5.974;2023-04-06T20:01:58;474.05;;;352.48;;
61673;SDS011;47573;43.832;5.974;2023-04-06T20:08:40;445.15;;;337.38;;
61673;SDS011;47573;43.832;5.974;2023-04-06T20:15:20;445.67;;;332.58;;
61673;SDS011;47573;43.832;5.974;2023-04-06T20:22:01;439.98;;;331.83;;
61673;SDS011;47573;43.832;5.974;2023-04-06T20:28:43;433.10;;;326.93;;
61673;SDS011;47573;43.832;5.974;2023-04-06T20:35:23;434.33;;;326.58;;
61673;SDS011;47573;43.832;5.974;2023-04-06T20:42:05;442.13;;;319.15;;
61673;SDS011;47573;43.832;5.974;2023-04-06T20:48:47;431.67;;;313.02;;
61673;SDS011;47573;43.832;5.974;2023-04-06T20:55:28;425.38;;;313.05;;
61673;SDS011;47573;43.832;5.974;2023-04-06T21:02:09;423.13;;;311.35;;
61673;SDS011;47573;43.832;5.974;2023-04-06T21:08:51;422.80;;;308.02;;
61673;SDS011;47573;43.832;5.974;2023-04-06T21:15:31;425.13;;;308.65;;
61673;SDS011;47573;43.832;5.974;2023-04-06T21:22:12;415.73;;;303.23;;
61673;SDS011;47573;43.832;5.974;2023-04-06T21:28:54;411.73;;;293.67;;
61673;SDS011;47573;43.832;5.974;2023-04-06T21:35:36;406.87;;;289.73;;
61673;SDS011;47573;43.832;5.974;2023-04-06T21:48:59;396.38;;;287.70;;
61673;SDS011;47573;43.832;5.974;2023-04-06T21:55:42;414.33;;;297.83;;
61673;SDS011;47573;43.832;5.974;2023-04-06T22:02:23;432.65;;;312.52;;
61673;SDS011;47573;43.832;5.974;2023-04-06T22:09:05;415.53;;;294.57;;
61673;SDS011;47573;43.832;5.974;2023-04-06T22:15:46;412.63;;;297.45;;
61673;SDS011;47573;43.832;5.974;2023-04-06T22:22:34;414.75;;;297.45;;
61673;SDS011;47573;43.832;5.974;2023-04-06T22:29:16;406.45;;;285.00;;
61673;SDS011;47573;43.832;5.974;2023-04-06T22:35:57;412.80;;;285.45;;
61673;SDS011;47573;43.832;5.974;2023-04-06T22:42:38;396.88;;;279.73;;
61673;SDS011;47573;43.832;5.974;2023-04-06T22:49:20;395.15;;;274.92;;
61673;SDS011;47573;43.832;5.974;2023-04-06T22:56:00;401.35;;;273.92;;
61673;SDS011;47573;43.832;5.974;2023-04-06T23:02:41;399.13;;;275.98;;
61673;SDS011;47573;43.832;5.974;2023-04-06T23:09:23;395.73;;;270.97;;
61673;SDS011;47573;43.832;5.974;2023-04-06T23:16:03;378.00;;;263.30;;
61673;SDS011;47573;43.832;5.974;2023-04-06T23:22:44;375.10;;;260.08;;
61673;SDS011;47573;43.832;5.974;2023-04-06T23:29:26;377.03;;;259.00;;
61673;SDS011;47573;43.832;5.974;2023-04-06T23:36:07;372.27;;;252.53;;
61673;SDS011;47573;43.832;5.974;2023-04-06T23:42:47;366.83;;;249.50;;
61673;SDS011;47573;43.832;5.974;2023-04-06T23:49:29;358.00;;;243.10;;
61673;SDS011;47573;43.832;5.974;2023-04-06T23:56:12;361.80;;;247.52;;
